createdAt,value
2016-02-13T00:00:27.520Z,0
2016-02-13T00:01:27.569Z,0
2016-02-13T00:02:27.525Z,0
2016-02-13T00:03:27.528Z,0
2016-02-13T00:04:27.548Z,0
2016-02-13T00:05:27.534Z,0
2016-02-13T00:06:27.521Z,0
2016-02-13T00:07:27.508Z,0
2016-02-13T00:08:27.558Z,0
2016-02-13T00:09:27.515Z,0
2016-02-13T00:10:27.550Z,0
2016-02-13T00:11:27.521Z,0
2016-02-13T00:12:27.539Z,0
2016-02-13T00:13:27.541Z,0
2016-02-13T00:14:27.529Z,0
2016-02-13T00:15:27.516Z,0
2016-02-13T00:16:27.550Z,0
2016-02-13T00:17:27.505Z,0
2016-02-13T00:18:27.526Z,0
2016-02-13T00:19:27.512Z,0
2016-02-13T00:20:27.500Z,0
2016-02-13T00:21:27.534Z,0
2016-02-13T00:22:27.367Z,0
2016-02-13T00:23:27.511Z,0
2016-02-13T00:24:27.514Z,0
2016-02-13T00:25:27.500Z,0
2016-02-13T00:26:27.377Z,0
2016-02-13T00:27:27.524Z,0
2016-02-13T00:28:27.510Z,0
2016-02-13T00:29:27.497Z,0
2016-02-13T00:30:27.499Z,0
2016-02-13T00:31:27.502Z,0
2016-02-13T00:32:27.521Z,0
2016-02-13T00:33:27.492Z,0
2016-02-13T00:34:27.526Z,0
2016-02-13T00:35:27.499Z,0
2016-02-13T00:36:27.516Z,0
2016-02-13T00:37:27.504Z,0
2016-02-13T00:38:27.491Z,0
2016-02-13T00:39:27.494Z,0
2016-02-13T00:40:27.496Z,0
2016-02-13T00:41:27.515Z,0
2016-02-13T00:42:27.486Z,0
2016-02-13T00:43:27.505Z,0
2016-02-13T00:44:27.477Z,0
2016-02-13T00:45:27.511Z,0
2016-02-13T00:46:27.497Z,0
2016-02-13T00:47:27.516Z,0
2016-02-13T00:48:27.503Z,0
2016-02-13T00:49:27.474Z,0
2016-02-13T00:50:27.508Z,0
2016-02-13T00:51:27.511Z,0
2016-02-13T00:52:27.529Z,0
2016-02-13T00:53:27.486Z,0
2016-02-13T00:54:27.493Z,0
2016-02-13T00:55:27.495Z,0
2016-02-13T00:56:27.487Z,0
2016-02-13T00:57:27.334Z,0
2016-02-13T00:58:27.478Z,0
2016-02-13T00:59:27.480Z,0
2016-02-13T01:00:27.498Z,0
2016-02-13T01:01:27.486Z,0
2016-02-13T01:02:27.522Z,0
2016-02-13T01:03:27.478Z,0
2016-02-13T01:04:27.325Z,0
2016-02-13T01:05:27.514Z,0
2016-02-13T01:06:27.487Z,0
2016-02-13T01:07:27.505Z,0
2016-02-13T01:08:27.461Z,0
2016-02-13T01:09:27.478Z,0
2016-02-13T01:10:27.466Z,0
2016-02-13T01:11:27.516Z,0
2016-02-13T01:12:27.472Z,0
2016-02-13T01:13:27.506Z,0
2016-02-13T01:14:27.492Z,0
2016-02-13T01:15:27.479Z,0
2016-02-13T01:16:27.466Z,0
2016-02-13T01:17:27.344Z,0
2016-02-13T01:18:27.462Z,0
2016-02-13T01:19:27.498Z,0
2016-02-13T01:20:27.468Z,0
2016-02-13T01:21:27.470Z,0
2016-02-13T01:22:27.460Z,0
2016-02-13T01:23:27.463Z,0
2016-02-13T01:24:27.480Z,0
2016-02-13T01:25:27.468Z,0
2016-02-13T01:26:27.486Z,0
2016-02-13T01:27:27.457Z,0
2016-02-13T01:28:27.460Z,0
2016-02-13T01:29:27.463Z,0
2016-02-13T01:30:27.466Z,0
2016-02-13T01:31:27.453Z,0
2016-02-13T01:32:27.456Z,0
2016-02-13T01:33:27.475Z,0
2016-02-13T01:34:27.494Z,0
2016-02-13T01:35:27.449Z,0
2016-02-13T01:36:27.467Z,0
2016-02-13T01:37:27.469Z,0
2016-02-13T01:38:27.457Z,0
2016-02-13T01:39:27.476Z,0
2016-02-13T01:40:27.464Z,0
2016-02-13T01:41:27.481Z,0
2016-02-13T01:42:27.453Z,0
2016-02-13T01:43:27.456Z,0
2016-02-13T01:44:27.490Z,0
2016-02-13T01:45:27.462Z,0
2016-02-13T01:46:27.448Z,0
2016-02-13T01:47:27.450Z,0
2016-02-13T01:48:27.439Z,0
2016-02-13T01:49:27.457Z,0
2016-02-13T01:50:27.444Z,0
2016-02-13T01:51:27.462Z,0
2016-02-13T01:52:27.465Z,0
2016-02-13T01:53:27.467Z,0
2016-02-13T01:54:27.442Z,0
2016-02-13T01:55:27.461Z,0
2016-02-13T01:56:27.432Z,0
2016-02-13T01:57:27.435Z,0
2016-02-13T01:58:27.438Z,0
2016-02-13T01:59:27.457Z,0
2016-02-13T02:00:27.443Z,0
2016-02-13T02:01:27.462Z,0
2016-02-13T02:02:27.449Z,0
2016-02-13T02:03:27.437Z,0
2016-02-13T02:04:27.143Z,0
2016-02-13T02:05:27.428Z,0
2016-02-13T02:06:27.447Z,0
2016-02-13T02:07:27.450Z,0
2016-02-13T02:08:27.436Z,0
2016-02-13T02:09:27.439Z,0
2016-02-13T02:10:27.426Z,0
2016-02-13T02:11:27.460Z,0
2016-02-13T02:12:27.446Z,0
2016-02-13T02:13:27.435Z,0
2016-02-13T02:14:27.421Z,0
2016-02-13T02:15:27.440Z,0
2016-02-13T02:16:27.443Z,0
2016-02-13T02:17:27.445Z,0
2016-02-13T02:18:27.432Z,0
2016-02-13T02:19:27.451Z,0
2016-02-13T02:20:27.421Z,0
2016-02-13T02:21:27.440Z,0
2016-02-13T02:22:27.427Z,0
2016-02-13T02:23:27.418Z,0
2016-02-13T02:24:27.435Z,0
2016-02-13T02:25:27.422Z,0
2016-02-13T02:26:27.458Z,0
2016-02-13T02:27:27.429Z,0
2016-02-13T02:28:27.432Z,0
2016-02-13T02:29:27.403Z,0
2016-02-13T02:30:27.437Z,0
2016-02-13T02:31:27.408Z,0
2016-02-13T02:32:27.443Z,0
2016-02-13T02:33:27.414Z,0
2016-02-13T02:34:27.448Z,0
2016-02-13T02:35:27.419Z,0
2016-02-13T02:36:27.422Z,0
2016-02-13T02:37:27.410Z,0
2016-02-13T02:38:27.427Z,0
2016-02-13T02:39:27.415Z,0
2016-02-13T02:40:27.417Z,0
2016-02-13T02:41:27.434Z,0
2016-02-13T02:42:27.407Z,0
2016-02-13T02:43:27.411Z,0
2016-02-13T02:44:27.445Z,0
2016-02-13T02:45:27.464Z,0
2016-02-13T02:46:27.435Z,0
2016-02-13T02:47:27.406Z,0
2016-02-13T02:48:27.441Z,0
2016-02-13T02:49:27.396Z,0
2016-02-13T02:50:27.430Z,0
2016-02-13T02:51:27.401Z,0
2016-02-13T02:52:27.389Z,0
2016-02-13T02:53:27.408Z,0
2016-02-13T02:54:27.395Z,0
2016-02-13T02:55:27.415Z,0
2016-02-13T02:56:27.402Z,0
2016-02-13T02:57:27.405Z,0
2016-02-13T02:58:27.424Z,0
2016-02-13T02:59:27.426Z,0
2016-02-13T03:00:27.380Z,0
2016-02-13T03:01:27.414Z,0
2016-02-13T03:02:27.400Z,0
2016-02-13T03:03:27.389Z,0
2016-02-13T03:04:27.392Z,0
2016-02-13T03:05:27.378Z,0
2016-02-13T03:06:27.396Z,0
2016-02-13T03:07:27.383Z,0
2016-02-13T03:08:27.402Z,0
2016-02-13T03:09:27.390Z,0
2016-02-13T03:10:27.424Z,0
2016-02-13T03:11:27.395Z,0
2016-02-13T03:12:27.398Z,0
2016-02-13T03:13:27.385Z,0
2016-02-13T03:14:27.423Z,0
2016-02-13T03:15:27.378Z,0
2016-02-13T03:16:27.427Z,0
2016-02-13T03:17:27.367Z,0
2016-02-13T03:18:27.388Z,0
2016-02-13T03:19:27.390Z,0
2016-02-13T03:20:27.211Z,0
2016-02-13T03:21:27.371Z,0
2016-02-13T03:22:27.374Z,0
2016-02-13T03:23:27.392Z,0
2016-02-13T03:24:27.378Z,0
2016-02-13T03:25:27.397Z,0
2016-02-13T03:26:27.386Z,0
2016-02-13T03:27:27.375Z,0
2016-02-13T03:28:27.377Z,0
2016-02-13T03:29:27.380Z,0
2016-02-13T03:30:27.397Z,0
2016-02-13T03:31:27.370Z,0
2016-02-13T03:32:27.403Z,0
2016-02-13T03:33:27.359Z,0
2016-02-13T03:34:27.361Z,0
2016-02-13T03:35:27.380Z,0
2016-02-13T03:36:27.352Z,0
2016-02-13T03:37:27.480Z,0
2016-02-13T03:38:27.372Z,0
2016-02-13T03:39:27.235Z,0
2016-02-13T03:40:27.347Z,0
2016-02-13T03:41:27.350Z,0
2016-02-13T03:42:27.364Z,0
2016-02-13T03:43:27.339Z,0
2016-02-13T03:44:27.329Z,0
2016-02-13T03:45:27.350Z,0
2016-02-13T03:46:27.311Z,0
2016-02-13T03:47:27.353Z,0
2016-02-13T03:48:27.290Z,0
2016-02-13T03:49:27.334Z,0
2016-02-13T03:50:27.270Z,0
2016-02-13T03:51:27.269Z,0
2016-02-13T03:52:27.284Z,0
2016-02-13T03:53:27.270Z,0
2016-02-13T03:54:27.287Z,0
2016-02-13T03:55:27.256Z,0
2016-02-13T03:56:27.273Z,0
2016-02-13T03:57:27.258Z,0
2016-02-13T03:58:27.308Z,0
2016-02-13T03:59:27.249Z,0
2016-02-13T04:00:27.265Z,0
2016-02-13T04:01:27.267Z,0
2016-02-13T04:02:27.254Z,0
2016-02-13T04:03:27.257Z,0
2016-02-13T04:04:27.245Z,0
2016-02-13T04:05:27.279Z,0
2016-02-13T04:06:27.234Z,0
2016-02-13T04:07:27.354Z,0
2016-02-13T04:08:27.098Z,0
2016-02-13T04:09:31.867Z,0
2016-02-13T04:10:27.360Z,0
2016-02-13T04:11:27.347Z,0
2016-02-13T04:12:27.255Z,0
2016-02-13T04:13:27.461Z,0
2016-02-13T04:14:27.245Z,0
2016-02-13T04:15:27.263Z,0
2016-02-13T04:16:27.236Z,0
2016-02-13T04:17:27.254Z,0
2016-02-13T04:18:27.240Z,0
2016-02-13T04:19:27.248Z,0
2016-02-13T04:20:27.235Z,0
2016-02-13T04:21:27.254Z,0
2016-02-13T04:22:27.225Z,0
2016-02-13T04:23:27.243Z,0
2016-02-13T04:24:27.231Z,0
2016-02-13T04:25:27.234Z,0
2016-02-13T04:26:27.283Z,0
2016-02-13T04:27:27.239Z,0
2016-02-13T04:28:27.225Z,0
2016-02-13T04:29:27.226Z,0
2016-02-13T04:30:27.228Z,0
2016-02-13T04:31:27.106Z,0
2016-02-13T04:32:27.219Z,0
2016-02-13T04:33:27.254Z,0
2016-02-13T04:34:27.209Z,0
2016-02-13T04:35:27.212Z,0
2016-02-13T04:36:27.230Z,0
2016-02-13T04:37:27.217Z,0
2016-02-13T04:38:27.220Z,0
2016-02-13T04:39:27.239Z,0
2016-02-13T04:40:27.242Z,0
2016-02-13T04:41:27.229Z,0
2016-02-13T04:42:27.248Z,0
2016-02-13T04:43:27.205Z,0
2016-02-13T04:44:27.223Z,0
2016-02-13T04:45:27.210Z,0
2016-02-13T04:46:27.213Z,0
2016-02-13T04:47:27.215Z,0
2016-02-13T04:48:27.220Z,0
2016-02-13T04:49:27.066Z,0
2016-02-13T04:50:27.241Z,0
2016-02-13T04:51:27.198Z,0
2016-02-13T04:52:27.248Z,0
2016-02-13T04:53:27.203Z,0
2016-02-13T04:54:27.238Z,0
2016-02-13T04:55:27.209Z,0
2016-02-13T04:56:27.259Z,0
2016-02-13T04:57:27.199Z,0
2016-02-13T04:58:27.204Z,0
2016-02-13T04:59:27.190Z,0
2016-02-13T05:00:27.226Z,0
2016-02-13T05:01:27.197Z,0
2016-02-13T05:02:27.231Z,0
2016-02-13T05:03:27.233Z,0
2016-02-13T05:04:27.268Z,0
2016-02-13T05:05:27.192Z,0
2016-02-13T05:06:27.180Z,0
2016-02-13T05:07:27.197Z,0
2016-02-13T05:08:27.188Z,0
2016-02-13T05:09:27.222Z,0
2016-02-13T05:10:27.193Z,0
2016-02-13T05:11:27.227Z,0
2016-02-13T05:12:27.183Z,0
2016-02-13T05:13:27.201Z,0
2016-02-13T05:14:27.188Z,0
2016-02-13T05:15:27.207Z,0
2016-02-13T05:16:27.177Z,0
2016-02-13T05:17:27.198Z,0
2016-02-13T05:18:27.185Z,0
2016-02-13T05:19:27.235Z,0
2016-02-13T05:20:27.175Z,0
2016-02-13T05:21:27.194Z,0
2016-02-13T05:22:27.181Z,0
2016-02-13T05:23:27.184Z,0
2016-02-13T05:24:27.187Z,0
2016-02-13T05:25:27.173Z,0
2016-02-13T05:26:27.210Z,0
2016-02-13T05:27:27.165Z,0
2016-02-13T05:28:27.200Z,0
2016-02-13T05:29:27.173Z,0
2016-02-13T05:30:27.192Z,0
2016-02-13T05:31:27.179Z,0
2016-02-13T05:32:27.228Z,0
2016-02-13T05:33:27.170Z,0
2016-02-13T05:34:27.190Z,0
2016-02-13T05:35:27.162Z,0
2016-02-13T05:36:27.180Z,0
2016-02-13T05:37:27.183Z,0
2016-02-13T05:38:27.170Z,0
2016-02-13T05:39:27.189Z,0
2016-02-13T05:40:27.159Z,0
2016-02-13T05:41:27.178Z,0
2016-02-13T05:42:27.164Z,0
2016-02-13T05:43:27.168Z,0
2016-02-13T05:44:27.170Z,0
2016-02-13T05:45:27.189Z,0
2016-02-13T05:46:27.175Z,0
2016-02-13T05:47:27.163Z,0
2016-02-13T05:48:27.166Z,0
2016-02-13T05:49:27.153Z,0
2016-02-13T05:50:27.155Z,0
2016-02-13T05:51:27.158Z,0
2016-02-13T05:52:27.192Z,0
2016-02-13T05:53:27.164Z,0
2016-02-13T05:54:27.182Z,0
2016-02-13T05:55:27.155Z,0
2016-02-13T05:56:27.190Z,0
2016-02-13T05:57:27.145Z,0
2016-02-13T05:58:27.147Z,0
2016-02-13T05:59:27.134Z,0
2016-02-13T06:00:27.155Z,0
2016-02-13T06:01:27.142Z,0
2016-02-13T06:02:27.175Z,0
2016-02-13T06:03:27.147Z,0
2016-02-13T06:04:27.165Z,0
2016-02-13T06:05:27.153Z,0
2016-02-13T06:06:27.171Z,0
2016-02-13T06:07:27.142Z,0
2016-02-13T06:08:27.161Z,0
2016-02-13T06:09:27.134Z,0
2016-02-13T06:10:27.152Z,0
2016-02-13T06:11:27.139Z,0
2016-02-13T06:12:27.159Z,0
2016-02-13T06:13:27.147Z,0
2016-02-13T06:14:26.992Z,0
2016-02-13T06:15:27.136Z,0
2016-02-13T06:16:27.155Z,0
2016-02-13T06:17:27.158Z,0
2016-02-13T06:18:27.175Z,0
2016-02-13T06:19:27.163Z,0
2016-02-13T06:20:27.166Z,0
2016-02-13T06:21:27.136Z,0
2016-02-13T06:22:27.139Z,0
2016-02-13T06:23:27.158Z,0
2016-02-13T06:24:27.129Z,0
2016-02-13T06:25:27.147Z,0
2016-02-13T06:26:27.119Z,0
2016-02-13T06:27:27.153Z,0
2016-02-13T06:28:27.125Z,0
2016-02-13T06:29:27.158Z,0
2016-02-13T06:30:27.119Z,0
2016-02-13T06:31:27.152Z,0
2016-02-13T06:32:27.124Z,0
2016-02-13T06:33:27.126Z,0
2016-02-13T06:34:27.114Z,0
2016-02-13T06:35:27.147Z,0
2016-02-13T06:36:27.135Z,0
2016-02-13T06:37:27.121Z,0
2016-02-13T06:38:27.126Z,0
2016-02-13T06:39:27.113Z,0
2016-02-13T06:40:27.132Z,0
2016-02-13T06:41:27.118Z,0
2016-02-13T06:42:27.137Z,0
2016-02-13T06:43:27.108Z,0
2016-02-13T06:44:27.112Z,0
2016-02-13T06:45:27.114Z,0
2016-02-13T06:46:27.132Z,0
2016-02-13T06:47:27.105Z,0
2016-02-13T06:48:27.139Z,0
2016-02-13T06:49:27.127Z,0
2016-02-13T06:50:27.145Z,0
2016-02-13T06:51:27.100Z,0
2016-02-13T06:52:27.119Z,0
2016-02-13T06:53:27.121Z,0
2016-02-13T06:54:27.108Z,0
2016-02-13T06:55:27.127Z,0
2016-02-13T06:56:27.100Z,0
2016-02-13T06:57:27.117Z,0
2016-02-13T06:58:27.105Z,0
2016-02-13T06:59:27.092Z,5
2016-02-13T07:00:27.110Z,0
2016-02-13T07:01:27.128Z,0
2016-02-13T07:02:27.414Z,5
2016-02-13T07:03:27.104Z,5
2016-02-13T07:04:27.107Z,5
2016-02-13T07:05:27.093Z,5
2016-02-13T07:06:27.097Z,5
2016-02-13T07:07:27.100Z,10
2016-02-13T07:08:27.118Z,10
2016-02-13T07:09:27.090Z,10
2016-02-13T07:10:27.123Z,10
2016-02-13T07:11:27.079Z,10
2016-02-13T07:12:27.082Z,10
2016-02-13T07:13:27.102Z,10
2016-02-13T07:14:27.089Z,10
2016-02-13T07:15:27.092Z,10
2016-02-13T07:16:27.095Z,10
2016-02-13T07:17:27.082Z,15
2016-02-13T07:18:27.100Z,15
2016-02-13T07:19:27.072Z,20
2016-02-13T07:20:27.106Z,20
2016-02-13T07:21:27.078Z,20
2016-02-13T07:22:27.095Z,20
2016-02-13T07:23:27.083Z,20
2016-02-13T07:24:27.070Z,20
2016-02-13T07:25:27.089Z,20
2016-02-13T07:26:27.075Z,25
2016-02-13T07:27:27.094Z,25
2016-02-13T07:28:27.080Z,20
2016-02-13T07:29:27.084Z,20
2016-02-13T07:30:27.102Z,20
2016-02-13T07:31:27.091Z,20
2016-02-13T07:32:27.109Z,20
2016-02-13T07:33:27.069Z,25
2016-02-13T07:34:27.086Z,25
2016-02-13T07:35:27.090Z,25
2016-02-13T07:36:27.061Z,30
2016-02-13T07:37:27.080Z,35
2016-02-13T07:38:27.082Z,40
2016-02-13T07:39:27.069Z,50
2016-02-13T07:40:27.087Z,55
2016-02-13T07:41:27.060Z,55
2016-02-13T07:42:27.063Z,55
2016-02-13T07:43:27.081Z,55
2016-02-13T07:44:27.067Z,60
2016-02-13T07:45:27.087Z,55
2016-02-13T07:46:27.058Z,60
2016-02-13T07:47:27.092Z,60
2016-02-13T07:48:27.064Z,60
2016-02-13T07:49:27.081Z,60
2016-02-13T07:50:27.084Z,65
2016-02-13T07:51:27.074Z,65
2016-02-13T07:52:27.060Z,65
2016-02-13T07:53:27.063Z,70
2016-02-13T07:54:27.066Z,65
2016-02-13T07:55:27.085Z,65
2016-02-13T07:56:27.087Z,70
2016-02-13T07:57:27.074Z,75
2016-02-13T07:58:27.061Z,75
2016-02-13T07:59:27.110Z,65
2016-02-13T08:00:27.052Z,55
2016-02-13T08:01:27.038Z,50
2016-02-13T08:02:27.061Z,45
2016-02-13T08:03:27.064Z,40
2016-02-13T08:04:27.123Z,35
2016-02-13T08:05:27.235Z,40
2016-02-13T08:06:27.052Z,40
2016-02-13T08:07:27.054Z,45
2016-02-13T08:08:27.090Z,50
2016-02-13T08:09:27.060Z,45
2016-02-13T08:10:27.048Z,40
2016-02-13T08:11:27.081Z,35
2016-02-13T08:12:27.053Z,40
2016-02-13T08:13:27.056Z,50
2016-02-13T08:14:27.074Z,55
2016-02-13T08:15:27.045Z,55
2016-02-13T08:16:27.079Z,55
2016-02-13T08:17:27.068Z,65
2016-02-13T08:18:27.055Z,65
2016-02-13T08:19:27.042Z,65
2016-02-13T08:20:27.046Z,65
2016-02-13T08:21:27.048Z,70
2016-02-13T08:22:27.051Z,65
2016-02-13T08:23:27.069Z,65
2016-02-13T08:24:27.041Z,70
2016-02-13T08:25:27.044Z,75
2016-02-13T08:26:27.049Z,70
2016-02-13T08:27:27.052Z,70
2016-02-13T08:28:27.069Z,70
2016-02-13T08:29:27.059Z,70
2016-02-13T08:30:27.046Z,70
2016-02-13T08:31:27.097Z,95
2016-02-13T08:32:27.053Z,105
2016-02-13T08:33:27.056Z,120
2016-02-13T08:34:27.074Z,130
2016-02-13T08:35:27.047Z,130
2016-02-13T08:36:27.040Z,135
2016-02-13T08:37:27.027Z,130
2016-02-13T08:38:27.045Z,110
2016-02-13T08:39:27.062Z,100
2016-02-13T08:40:27.065Z,100
2016-02-13T08:41:27.068Z,100
2016-02-13T08:42:27.040Z,100
2016-02-13T08:43:27.043Z,100
2016-02-13T08:44:27.047Z,95
2016-02-13T08:45:27.050Z,90
2016-02-13T08:46:27.085Z,85
2016-02-13T08:47:27.040Z,85
2016-02-13T08:48:27.059Z,80
2016-02-13T08:49:27.046Z,85
2016-02-13T08:50:27.048Z,95
2016-02-13T08:51:27.036Z,100
2016-02-13T08:52:27.053Z,105
2016-02-13T08:53:27.072Z,110
2016-02-13T08:54:27.075Z,110
2016-02-13T08:55:27.049Z,115
2016-02-13T08:56:27.082Z,120
2016-02-13T08:57:27.038Z,125
2016-02-13T08:58:27.040Z,125
2016-02-13T08:59:27.060Z,130
2016-02-13T09:00:27.046Z,130
2016-02-13T09:01:27.049Z,135
2016-02-13T09:02:27.051Z,135
2016-02-13T09:03:27.058Z,140
2016-02-13T09:04:27.077Z,140
2016-02-13T09:05:27.065Z,145
2016-02-13T09:06:27.036Z,145
2016-02-13T09:07:27.054Z,140
2016-02-13T09:08:27.041Z,145
2016-02-13T09:09:27.044Z,155
2016-02-13T09:10:27.047Z,160
2016-02-13T09:11:27.050Z,150
2016-02-13T09:12:27.052Z,140
2016-02-13T09:13:27.056Z,145
2016-02-13T09:14:27.058Z,150
2016-02-13T09:15:27.046Z,170
2016-02-13T09:16:27.048Z,180
2016-02-13T09:17:27.067Z,185
2016-02-13T09:18:27.053Z,185
2016-02-13T09:19:27.056Z,145
2016-02-13T09:20:27.059Z,120
2016-02-13T09:21:27.062Z,100
2016-02-13T09:22:27.065Z,90
2016-02-13T09:23:27.083Z,85
2016-02-13T09:24:27.070Z,85
2016-02-13T09:25:27.072Z,85
2016-02-13T09:26:27.059Z,95
2016-02-13T09:27:27.047Z,95
2016-02-13T09:28:27.050Z,100
2016-02-13T09:29:27.067Z,100
2016-02-13T09:30:27.056Z,110
2016-02-13T09:31:27.058Z,120
2016-02-13T09:32:27.079Z,125
2016-02-13T09:33:27.068Z,125
2016-02-13T09:34:27.086Z,125
2016-02-13T09:35:27.057Z,125
2016-02-13T09:36:27.060Z,135
2016-02-13T09:37:27.063Z,140
2016-02-13T09:38:27.065Z,140
2016-02-13T09:39:27.068Z,145
2016-02-13T09:40:27.071Z,145
2016-02-13T09:41:27.057Z,145
2016-02-13T09:42:27.060Z,140
2016-02-13T09:43:27.063Z,140
2016-02-13T09:44:27.065Z,135
2016-02-13T09:45:27.085Z,135
2016-02-13T09:46:27.071Z,135
2016-02-13T09:47:27.106Z,140
2016-02-13T09:48:27.078Z,135
2016-02-13T09:49:27.081Z,135
2016-02-13T09:50:26.911Z,130
2016-02-13T09:51:27.072Z,125
2016-02-13T09:52:27.107Z,120
2016-02-13T09:53:27.093Z,120
2016-02-13T09:54:27.112Z,125
2016-02-13T09:55:27.083Z,130
2016-02-13T09:56:27.132Z,130
2016-02-13T09:57:27.072Z,130
2016-02-13T09:58:27.137Z,135
2016-02-13T09:59:27.078Z,135
2016-02-13T10:00:27.082Z,140
2016-02-13T10:01:27.085Z,145
2016-02-13T10:02:27.108Z,145
2016-02-13T10:03:27.096Z,145
2016-02-13T10:04:27.098Z,145
2016-02-13T10:05:27.101Z,140
2016-02-13T10:06:27.103Z,140
2016-02-13T10:07:27.107Z,140
2016-02-13T10:08:27.079Z,140
2016-02-13T10:09:27.113Z,135
2016-02-13T10:10:27.100Z,125
2016-02-13T10:11:27.102Z,120
2016-02-13T10:12:27.105Z,120
2016-02-13T10:13:27.138Z,115
2016-02-13T10:14:27.095Z,105
2016-02-13T10:15:27.098Z,105
2016-02-13T10:16:27.132Z,115
2016-02-13T10:17:27.135Z,115
2016-02-13T10:18:27.107Z,110
2016-02-13T10:19:27.110Z,110
2016-02-13T10:20:27.113Z,110
2016-02-13T10:21:27.146Z,115
2016-02-13T10:22:27.117Z,125
2016-02-13T10:23:27.104Z,120
2016-02-13T10:24:27.123Z,120
2016-02-13T10:25:27.110Z,120
2016-02-13T10:26:27.144Z,130
2016-02-13T10:27:27.132Z,135
2016-02-13T10:28:27.150Z,135
2016-02-13T10:29:27.106Z,145
2016-02-13T10:30:27.139Z,160
2016-02-13T10:31:27.142Z,170
2016-02-13T10:32:26.991Z,175
2016-02-13T10:33:27.118Z,175
2016-02-13T10:34:27.137Z,150
2016-02-13T10:35:27.124Z,150
2016-02-13T10:36:27.158Z,145
2016-02-13T10:37:27.129Z,135
2016-02-13T10:38:27.163Z,130
2016-02-13T10:39:27.197Z,115
2016-02-13T10:40:27.137Z,105
2016-02-13T10:41:27.156Z,105
2016-02-13T10:42:27.142Z,105
2016-02-13T10:43:27.148Z,115
2016-02-13T10:44:27.166Z,125
2016-02-13T10:45:27.169Z,135
2016-02-13T10:46:27.156Z,140
2016-02-13T10:47:27.159Z,145
2016-02-13T10:48:27.177Z,140
2016-02-13T10:49:27.164Z,150
2016-02-13T10:50:27.168Z,145
2016-02-13T10:51:27.170Z,150
2016-02-13T10:52:27.158Z,150
2016-02-13T10:53:27.160Z,145
2016-02-13T10:54:27.179Z,145
2016-02-13T10:55:27.182Z,145
2016-02-13T10:56:27.154Z,145
2016-02-13T10:57:27.188Z,145
2016-02-13T10:58:27.160Z,140
2016-02-13T10:59:27.194Z,135
2016-02-13T11:00:27.180Z,135
2016-02-13T11:01:27.198Z,135
2016-02-13T11:02:27.174Z,140
2016-02-13T11:03:27.193Z,115
2016-02-13T11:04:27.195Z,100
2016-02-13T11:05:27.184Z,95
2016-02-13T11:06:27.186Z,90
2016-02-13T11:07:27.203Z,85
2016-02-13T11:08:27.207Z,75
2016-02-13T11:09:27.209Z,70
2016-02-13T11:10:27.181Z,75
2016-02-13T11:11:27.214Z,80
2016-02-13T11:12:27.188Z,70
2016-02-13T11:13:27.206Z,70
2016-02-13T11:14:27.193Z,65
2016-02-13T11:15:27.196Z,60
2016-02-13T11:16:27.215Z,50
2016-02-13T11:17:27.201Z,45
2016-02-13T11:18:27.219Z,60
2016-02-13T11:19:27.222Z,70
2016-02-13T11:20:27.209Z,75
2016-02-13T11:21:27.214Z,70
2016-02-13T11:22:27.200Z,70
2016-02-13T11:23:27.219Z,65
2016-02-13T11:24:27.206Z,65
2016-02-13T11:25:27.224Z,85
2016-02-13T11:26:27.243Z,85
2016-02-13T11:27:27.214Z,85
2016-02-13T11:28:27.232Z,95
2016-02-13T11:29:27.219Z,95
2016-02-13T11:30:27.223Z,85
2016-02-13T11:31:27.241Z,80
2016-02-13T11:32:27.088Z,85
2016-02-13T11:33:27.249Z,85
2016-02-13T11:34:27.235Z,85
2016-02-13T11:35:27.238Z,80
2016-02-13T11:36:27.257Z,90
2016-02-13T11:37:27.228Z,85
2016-02-13T11:38:27.247Z,80
2016-02-13T11:39:27.250Z,80
2016-02-13T11:40:27.237Z,85
2016-02-13T11:41:27.240Z,90
2016-02-13T11:42:27.274Z,95
2016-02-13T11:43:27.246Z,95
2016-02-13T11:44:27.249Z,100
2016-02-13T11:45:27.283Z,105
2016-02-13T11:46:27.379Z,110
2016-02-13T11:47:27.242Z,115
2016-02-13T11:48:27.261Z,110
2016-02-13T11:49:27.248Z,110
2016-02-13T11:50:27.266Z,105
2016-02-13T11:51:27.269Z,100
2016-02-13T11:52:27.397Z,95
2016-02-13T11:53:27.289Z,95
2016-02-13T11:54:27.261Z,95
2016-02-13T11:55:27.264Z,85
2016-02-13T11:56:27.284Z,85
2016-02-13T11:57:27.271Z,85
2016-02-13T11:58:27.257Z,85
2016-02-13T11:59:27.277Z,85
2016-02-13T12:00:27.280Z,85
2016-02-13T12:01:27.267Z,90
2016-02-13T12:02:27.269Z,85
2016-02-13T12:03:27.274Z,85
2016-02-13T12:04:27.277Z,80
2016-02-13T12:05:27.284Z,80
2016-02-13T12:06:27.272Z,80
2016-02-13T12:07:27.275Z,85
2016-02-13T12:08:27.308Z,85
2016-02-13T12:09:27.280Z,85
2016-02-13T12:10:27.283Z,85
2016-02-13T12:11:27.800Z,85
2016-02-13T12:12:27.288Z,80
2016-02-13T12:13:27.135Z,80
2016-02-13T12:14:27.294Z,75
2016-02-13T12:15:27.312Z,75
2016-02-13T12:16:27.286Z,75
2016-02-13T12:17:27.288Z,75
2016-02-13T12:18:27.291Z,80
2016-02-13T12:19:27.294Z,80
2016-02-13T12:20:27.296Z,85
2016-02-13T12:21:27.314Z,95
2016-02-13T12:22:27.318Z,95
2016-02-13T12:23:27.305Z,95
2016-02-13T12:24:27.292Z,90
2016-02-13T12:25:27.324Z,85
2016-02-13T12:26:27.310Z,90
2016-02-13T12:27:27.329Z,95
2016-02-13T12:28:27.303Z,100
2016-02-13T12:29:27.150Z,100
2016-02-13T12:30:27.152Z,95
2016-02-13T12:31:27.311Z,95
2016-02-13T12:32:27.316Z,90
2016-02-13T12:33:27.318Z,85
2016-02-13T12:34:27.321Z,80
2016-02-13T12:35:27.340Z,75
2016-02-13T12:36:27.312Z,70
2016-02-13T12:37:27.346Z,65
2016-02-13T12:38:27.317Z,60
2016-02-13T12:39:27.320Z,60
2016-02-13T12:40:27.322Z,55
2016-02-13T12:41:27.325Z,55
2016-02-13T12:42:27.312Z,55
2016-02-13T12:43:27.316Z,60
2016-02-13T12:44:27.351Z,60
2016-02-13T12:45:27.323Z,55
2016-02-13T12:46:27.325Z,55
2016-02-13T12:47:27.327Z,50
2016-02-13T12:48:27.315Z,50
2016-02-13T12:49:27.303Z,50
2016-02-13T12:50:27.306Z,45
2016-02-13T12:51:27.311Z,45
2016-02-13T12:52:27.299Z,45
2016-02-13T12:53:27.326Z,40
2016-02-13T12:54:27.262Z,40
2016-02-13T12:55:27.260Z,40
2016-02-13T12:56:27.240Z,40
2016-02-13T12:57:27.238Z,40
2016-02-13T12:58:27.255Z,40
2016-02-13T12:59:27.224Z,35
2016-02-13T13:00:27.257Z,35
2016-02-13T13:01:27.242Z,35
2016-02-13T13:02:27.242Z,35
2016-02-13T13:03:27.245Z,35
2016-02-13T13:04:27.244Z,40
2016-02-13T13:05:27.247Z,45
2016-02-13T13:06:27.264Z,45
2016-02-13T13:07:27.261Z,50
2016-02-13T13:08:27.247Z,55
2016-02-13T13:09:27.234Z,55
2016-02-13T13:10:27.236Z,55
2016-02-13T13:11:27.238Z,55
2016-02-13T13:12:27.241Z,50
2016-02-13T13:13:27.243Z,45
2016-02-13T13:14:27.246Z,40
2016-02-13T13:15:27.249Z,40
2016-02-13T13:16:27.251Z,35
2016-02-13T13:17:27.269Z,35
2016-02-13T13:18:27.257Z,35
2016-02-13T13:19:27.260Z,40
2016-02-13T13:20:27.246Z,40
2016-02-13T13:21:27.230Z,45
2016-02-13T13:22:27.252Z,45
2016-02-13T13:23:27.236Z,45
2016-02-13T13:24:27.257Z,45
2016-02-13T13:25:27.241Z,55
2016-02-13T13:26:27.245Z,75
2016-02-13T13:27:27.247Z,105
2016-02-13T13:28:27.299Z,120
2016-02-13T13:29:27.084Z,125
2016-02-13T13:30:27.243Z,125
2016-02-13T13:31:27.246Z,125
2016-02-13T13:32:27.264Z,130
2016-02-13T13:33:27.298Z,140
2016-02-13T13:34:27.257Z,145
2016-02-13T13:35:27.275Z,140
2016-02-13T13:36:27.263Z,130
2016-02-13T13:37:27.265Z,125
2016-02-13T13:38:27.270Z,115
2016-02-13T13:39:27.273Z,105
2016-02-13T13:40:27.275Z,110
2016-02-13T13:41:27.280Z,110
2016-02-13T13:42:27.268Z,100
2016-02-13T13:43:27.270Z,100
2016-02-13T13:44:27.257Z,90
2016-02-13T13:45:27.276Z,90
2016-02-13T13:46:27.262Z,90
2016-02-13T13:47:27.265Z,80
2016-02-13T13:48:27.268Z,80
2016-02-13T13:49:27.270Z,80
2016-02-13T13:50:27.289Z,85
2016-02-13T13:51:27.308Z,85
2016-02-13T13:52:27.278Z,85
2016-02-13T13:53:27.281Z,80
2016-02-13T13:54:27.269Z,80
2016-02-13T13:55:27.271Z,80
2016-02-13T13:56:27.306Z,85
2016-02-13T13:57:27.277Z,80
2016-02-13T13:58:27.263Z,85
2016-02-13T13:59:27.283Z,85
2016-02-13T14:00:27.285Z,95
2016-02-13T14:01:27.287Z,100
2016-02-13T14:02:27.291Z,95
2016-02-13T14:03:27.293Z,90
2016-02-13T14:04:27.280Z,85
2016-02-13T14:05:27.126Z,80
2016-02-13T14:06:27.285Z,80
2016-02-13T14:07:27.288Z,80
2016-02-13T14:08:27.290Z,80
2016-02-13T14:09:27.309Z,75
2016-02-13T14:10:27.312Z,70
2016-02-13T14:11:27.283Z,70
2016-02-13T14:12:27.301Z,60
2016-02-13T14:13:27.288Z,60
2016-02-13T14:14:27.291Z,60
2016-02-13T14:15:27.293Z,60
2016-02-13T14:16:27.296Z,60
2016-02-13T14:17:27.299Z,60
2016-02-13T14:18:27.301Z,60
2016-02-13T14:19:27.304Z,60
2016-02-13T14:20:27.306Z,60
2016-02-13T14:21:27.295Z,55
2016-02-13T14:22:27.297Z,55
2016-02-13T14:23:27.314Z,55
2016-02-13T14:24:27.318Z,55